createdAt,value
2023-02-24T00:02:15.128Z,13.20
2023-02-24T00:04:42.692Z,8.60
2023-02-24T00:07:12.714Z,8.50
2023-02-24T00:09:40.485Z,8.48
2023-02-24T00:12:09.274Z,10.48
2023-02-24T00:14:37.634Z,14.93
2023-02-24T00:17:06.333Z,11.70
2023-02-24T00:19:34.012Z,10.63
2023-02-24T00:22:02.285Z,9.98
2023-02-24T00:24:29.956Z,9.95
2023-02-24T00:26:59.538Z,11.85
2023-02-24T00:29:28.759Z,10.00
2023-02-24T00:31:59.337Z,8.43
2023-02-24T00:34:28.052Z,9.07
2023-02-24T00:36:57.403Z,11.27
2023-02-24T00:39:35.638Z,6.78
2023-02-24T00:42:05.067Z,13.93
2023-02-24T00:44:40.291Z,10.32
2023-02-24T00:47:08.585Z,19.05
2023-02-24T00:49:42.047Z,10.68
2023-02-24T00:52:14.418Z,9.90
2023-02-24T00:54:42.862Z,10.18
2023-02-24T00:57:10.515Z,10.38
2023-02-24T00:59:38.286Z,7.63
2023-02-24T01:02:07.246Z,8.85
2023-02-24T01:04:35.256Z,16.58
2023-02-24T01:07:03.778Z,11.18
2023-02-24T01:09:32.748Z,10.10
2023-02-24T01:12:38.481Z,9.32
2023-02-24T01:15:09.126Z,11.93
2023-02-24T01:17:37.889Z,7.95
2023-02-24T01:20:16.761Z,10.25
2023-02-24T01:22:45.150Z,9.82
2023-02-24T01:25:12.540Z,8.45
2023-02-24T01:27:43.071Z,10.73
2023-02-24T01:30:16.147Z,9.73
2023-02-24T01:32:44.688Z,13.20
2023-02-24T01:35:12.280Z,11.40
2023-02-24T01:37:40.235Z,14.50
2023-02-24T01:40:18.009Z,11.13
2023-02-24T01:42:47.683Z,9.20
2023-02-24T01:45:17.384Z,8.45
2023-02-24T01:47:47.342Z,11.65
2023-02-24T01:50:17.420Z,7.03
2023-02-24T01:52:47.302Z,10.73
2023-02-24T01:55:23.864Z,10.77
2023-02-24T01:57:52.584Z,10.23
2023-02-24T02:00:40.409Z,13.00
2023-02-24T02:03:29.720Z,8.25
2023-02-24T02:06:01.225Z,9.23
2023-02-24T02:08:29.167Z,10.55
2023-02-24T02:10:58.952Z,7.72
2023-02-24T02:13:27.884Z,12.25
2023-02-24T02:15:58.520Z,11.40
2023-02-24T02:18:46.236Z,10.07
2023-02-24T02:21:15.454Z,8.95
2023-02-24T02:23:48.924Z,11.20
2023-02-24T02:26:19.445Z,9.93
2023-02-24T02:28:46.906Z,13.13
2023-02-24T02:31:33.310Z,9.07
2023-02-24T02:34:21.309Z,10.95
2023-02-24T02:39:15.929Z,9.48
2023-02-24T02:41:49.405Z,8.90
2023-02-24T02:44:35.262Z,13.13
2023-02-24T02:47:09.025Z,9.70
2023-02-24T02:49:41.798Z,10.82
2023-02-24T02:52:17.912Z,13.68
2023-02-24T02:54:56.210Z,11.77
2023-02-24T02:57:28.942Z,9.73
2023-02-24T02:59:59.335Z,10.40
2023-02-24T03:02:29.811Z,9.25
2023-02-24T03:05:02.168Z,11.60
2023-02-24T03:07:32.682Z,9.18
2023-02-24T03:10:02.081Z,11.35
2023-02-24T03:12:32.762Z,11.93
2023-02-24T03:15:03.200Z,9.35
2023-02-24T03:17:36.947Z,11.80
2023-02-24T03:20:17.891Z,9.88
2023-02-24T03:22:52.026Z,10.77
2023-02-24T03:25:24.269Z,11.55
2023-02-24T03:28:01.747Z,13.02
2023-02-24T03:30:40.129Z,11.32
2023-02-24T03:33:23.793Z,8.10
2023-02-24T03:35:51.884Z,10.82
2023-02-24T03:38:23.276Z,11.88
2023-02-24T03:40:52.463Z,7.40
2023-02-24T03:43:31.056Z,11.38
2023-02-24T03:46:01.354Z,11.23
2023-02-24T03:48:30.566Z,8.93
2023-02-24T03:50:59.563Z,10.75
2023-02-24T03:53:47.244Z,10.68
2023-02-24T03:56:33.479Z,11.13
2023-02-24T03:59:29.234Z,10.02
2023-02-24T04:02:01.174Z,8.82
2023-02-24T04:04:36.457Z,7.22
2023-02-24T04:07:14.259Z,14.02
2023-02-24T04:09:41.828Z,10.98
2023-02-24T04:12:16.943Z,24.08
2023-02-24T04:14:48.733Z,10.70
2023-02-24T04:17:37.714Z,19.02
2023-02-24T04:20:15.786Z,9.57
2023-02-24T04:22:49.807Z,17.05
2023-02-24T04:25:19.767Z,15.20
2023-02-24T04:27:48.694Z,11.68
2023-02-24T04:30:18.218Z,11.35
2023-02-24T04:32:45.852Z,11.73
2023-02-24T04:35:16.758Z,11.70
2023-02-24T04:37:50.578Z,14.38
2023-02-24T04:40:22.030Z,13.77
2023-02-24T04:42:51.976Z,14.63
2023-02-24T04:45:22.744Z,13.38
2023-02-24T04:47:51.370Z,12.15
2023-02-24T04:50:25.998Z,11.95
2023-02-24T04:52:53.502Z,13.95
2023-02-24T04:55:22.403Z,10.63
2023-02-24T04:57:50.402Z,13.18
2023-02-24T05:00:21.241Z,10.40
2023-02-24T05:02:52.128Z,15.07
2023-02-24T05:05:26.357Z,11.80
2023-02-24T05:07:54.667Z,12.38
2023-02-24T05:10:27.957Z,11.65
2023-02-24T05:13:00.799Z,13.70
2023-02-24T05:15:33.808Z,14.43
2023-02-24T05:18:01.912Z,8.88
2023-02-24T05:20:48.194Z,9.80
2023-02-24T05:23:16.988Z,14.70
2023-02-24T05:25:44.501Z,13.07
2023-02-24T05:28:11.954Z,11.95
2023-02-24T05:30:39.404Z,10.82
2023-02-24T05:33:08.171Z,14.27
2023-02-24T05:35:37.285Z,11.95
2023-02-24T05:38:08.191Z,16.25
2023-02-24T05:40:35.877Z,11.25
2023-02-24T05:43:04.905Z,8.60
2023-02-24T05:45:32.822Z,8.63
2023-02-24T05:48:00.405Z,11.52
2023-02-24T05:50:27.927Z,10.25
2023-02-24T05:52:56.023Z,10.75
2023-02-24T05:55:23.764Z,13.68
2023-02-24T05:57:51.171Z,17.02
2023-02-24T06:00:18.772Z,11.88
2023-02-24T06:02:49.793Z,15.23
2023-02-24T06:05:25.636Z,16.02
2023-02-24T06:08:04.275Z,27.27
2023-02-24T06:10:33.547Z,39.22
2023-02-24T06:13:02.230Z,16.38
2023-02-24T06:15:30.435Z,14.32
2023-02-24T06:18:00.874Z,11.38
2023-02-24T06:20:29.562Z,13.68
2023-02-24T06:22:58.351Z,16.58
2023-02-24T06:25:28.001Z,17.00
2023-02-24T06:27:56.303Z,14.02
2023-02-24T06:30:24.717Z,18.38
2023-02-24T06:32:52.580Z,23.58
2023-02-24T06:35:20.423Z,15.82
2023-02-24T06:37:48.134Z,21.17
2023-02-24T06:40:18.592Z,19.75
2023-02-24T06:42:49.776Z,22.92
2023-02-24T06:45:17.599Z,22.75
2023-02-24T06:47:48.789Z,17.30
2023-02-24T06:50:20.214Z,16.52
2023-02-24T06:52:48.109Z,15.00
2023-02-24T06:55:27.972Z,19.08
2023-02-24T06:57:57.320Z,14.13
2023-02-24T07:00:42.970Z,15.35
2023-02-24T07:03:17.547Z,16.63
2023-02-24T07:05:50.636Z,20.13
2023-02-24T07:08:18.903Z,14.75
2023-02-24T07:10:48.382Z,15.25
2023-02-24T07:13:16.192Z,17.17
2023-02-24T07:15:49.146Z,12.55
2023-02-24T07:18:17.926Z,9.07
2023-02-24T07:20:46.654Z,14.13
2023-02-24T07:23:15.172Z,20.50
2023-02-24T07:25:43.441Z,12.40
2023-02-24T07:28:11.461Z,14.52
2023-02-24T07:30:40.321Z,11.20
2023-02-24T07:33:09.295Z,11.88
2023-02-24T07:35:36.820Z,11.80
2023-02-24T07:38:05.652Z,14.45
2023-02-24T07:40:33.950Z,12.38
2023-02-24T07:43:02.174Z,14.50
2023-02-24T07:45:29.858Z,11.25
2023-02-24T07:47:58.601Z,18.65
2023-02-24T07:50:28.216Z,12.68
2023-02-24T07:52:55.618Z,12.00
2023-02-24T07:55:25.812Z,12.27
2023-02-24T07:57:54.796Z,17.73
2023-02-24T08:00:28.240Z,17.20
2023-02-24T08:02:56.821Z,14.55
2023-02-24T08:05:24.717Z,12.32
2023-02-24T08:07:52.304Z,14.02
2023-02-24T08:10:26.801Z,13.70
2023-02-24T08:12:55.912Z,15.35
2023-02-24T08:15:34.019Z,18.38
2023-02-24T08:18:02.019Z,16.38
2023-02-24T08:20:36.235Z,14.23
2023-02-24T08:23:06.515Z,16.13
2023-02-24T08:25:36.927Z,16.33
2023-02-24T08:28:11.573Z,14.05
2023-02-24T08:30:44.921Z,15.80
2023-02-24T08:33:16.982Z,15.70
2023-02-24T08:35:45.389Z,13.30
2023-02-24T08:38:15.890Z,14.63
2023-02-24T08:40:50.853Z,13.80
2023-02-24T08:43:24.993Z,13.85
2023-02-24T08:45:57.127Z,13.88
2023-02-24T08:48:38.051Z,14.10
2023-02-24T08:51:07.763Z,15.77
2023-02-24T08:53:35.520Z,13.15
2023-02-24T08:56:11.423Z,17.10
2023-02-24T08:58:49.242Z,12.85
2023-02-24T09:01:19.338Z,13.25
2023-02-24T09:03:48.439Z,13.48
2023-02-24T09:06:18.023Z,12.73
2023-02-24T09:08:46.280Z,16.98
2023-02-24T09:11:16.858Z,16.15
2023-02-24T09:13:51.866Z,12.38
2023-02-24T09:16:20.400Z,17.60
2023-02-24T09:19:08.143Z,15.15
2023-02-24T09:21:47.930Z,14.98
2023-02-24T09:24:16.887Z,14.60
2023-02-24T09:26:44.529Z,15.73
2023-02-24T09:29:31.400Z,14.82
2023-02-24T09:32:04.730Z,13.30
2023-02-24T09:34:36.560Z,17.88
2023-02-24T09:37:04.862Z,19.73
2023-02-24T09:39:55.681Z,12.43
2023-02-24T09:42:24.538Z,24.17
2023-02-24T09:44:55.672Z,21.40
2023-02-24T09:47:54.671Z,12.90
2023-02-24T09:50:47.355Z,17.17
2023-02-24T09:53:17.590Z,14.80
2023-02-24T09:56:03.914Z,14.23
2023-02-24T09:58:43.029Z,14.40
2023-02-24T10:01:33.485Z,20.50
2023-02-24T10:04:18.534Z,15.20
2023-02-24T10:06:48.846Z,17.55
2023-02-24T10:09:24.643Z,17.75
2023-02-24T10:11:53.714Z,16.92
2023-02-24T10:14:43.794Z,18.02
2023-02-24T10:17:25.125Z,13.18
2023-02-24T10:20:01.239Z,19.58
2023-02-24T10:22:39.849Z,21.45
2023-02-24T10:25:22.426Z,18.27
2023-02-24T10:27:53.192Z,16.40
2023-02-24T10:30:28.139Z,21.58
2023-02-24T10:33:01.087Z,18.05
2023-02-24T10:35:33.643Z,20.48
2023-02-24T10:38:08.704Z,20.08
2023-02-24T10:40:47.179Z,17.35
2023-02-24T10:43:19.265Z,18.15
2023-02-24T10:45:47.571Z,21.95
2023-02-24T10:48:41.120Z,22.67
2023-02-24T10:51:11.946Z,20.20
2023-02-24T10:53:39.509Z,13.45
2023-02-24T10:56:41.972Z,18.40
2023-02-24T10:59:31.020Z,15.10
2023-02-24T11:02:29.922Z,15.45
2023-02-24T11:04:58.591Z,15.40
2023-02-24T11:07:33.737Z,14.93
2023-02-24T11:13:09.312Z,18.90
2023-02-24T11:15:57.887Z,14.90
2023-02-24T11:18:26.543Z,17.88
2023-02-24T11:20:59.656Z,15.20
2023-02-24T11:23:33.197Z,20.13
2023-02-24T11:26:04.653Z,16.88
2023-02-24T11:28:32.125Z,15.10
2023-02-24T11:30:59.700Z,14.75
2023-02-24T11:33:32.929Z,17.52
2023-02-24T11:36:16.254Z,15.18
2023-02-24T11:39:16.566Z,15.18
2023-02-24T11:41:46.690Z,17.25
2023-02-24T11:44:21.396Z,17.05
2023-02-24T11:46:57.756Z,19.38
2023-02-24T11:49:34.246Z,18.80
2023-02-24T11:52:04.727Z,15.43
2023-02-24T11:54:39.956Z,13.65
2023-02-24T11:59:40.390Z,19.38
2023-02-24T12:02:10.852Z,17.20
2023-02-24T12:04:51.159Z,17.48
2023-02-24T12:07:30.674Z,14.70
2023-02-24T12:10:16.739Z,17.85
2023-02-24T12:12:44.732Z,20.92
2023-02-24T12:15:20.281Z,13.77
2023-02-24T12:17:58.051Z,17.45
2023-02-24T12:20:31.300Z,19.33
2023-02-24T12:23:15.893Z,23.73
2023-02-24T12:26:09.132Z,17.20
2023-02-24T12:28:36.612Z,17.80
2023-02-24T12:31:08.840Z,18.50
2023-02-24T12:33:40.614Z,17.25
2023-02-24T12:36:28.737Z,14.27
2023-02-24T12:39:00.915Z,12.95
2023-02-24T12:41:40.817Z,12.27
2023-02-24T12:44:14.465Z,16.98
2023-02-24T12:46:41.930Z,14.52
2023-02-24T12:49:16.342Z,14.10
2023-02-24T12:52:09.441Z,14.82
2023-02-24T12:54:43.253Z,12.25
2023-02-24T12:57:16.923Z,16.63
2023-02-24T12:59:44.614Z,16.83
2023-02-24T13:02:20.859Z,13.93
2023-02-24T13:04:56.477Z,12.80
2023-02-24T13:07:28.887Z,13.57
2023-02-24T13:10:12.447Z,16.70
2023-02-24T13:12:56.587Z,14.25
2023-02-24T13:15:25.812Z,16.83
2023-02-24T13:17:57.929Z,12.10
2023-02-24T13:20:27.562Z,15.65
2023-02-24T13:22:55.389Z,17.90
2023-02-24T13:25:31.046Z,13.13
2023-02-24T13:28:00.876Z,17.70
2023-02-24T13:30:39.874Z,14.25
2023-02-24T13:33:07.410Z,18.17
2023-02-24T13:35:36.416Z,26.67
2023-02-24T13:38:11.954Z,16.90
2023-02-24T13:40:39.458Z,14.23
2023-02-24T13:43:22.675Z,12.20
2023-02-24T13:45:55.459Z,17.08
2023-02-24T13:48:23.101Z,14.73
2023-02-24T13:50:59.379Z,15.23
2023-02-24T13:53:37.476Z,15.80
2023-02-24T13:56:08.083Z,17.85
2023-02-24T13:58:35.485Z,17.02
2023-02-24T14:01:08.959Z,14.82
2023-02-24T14:03:36.926Z,15.35
2023-02-24T14:06:05.142Z,18.27
2023-02-24T14:08:32.595Z,21.15
2023-02-24T14:11:03.642Z,15.77
2023-02-24T14:13:34.282Z,16.05
2023-02-24T14:16:05.976Z,18.52
2023-02-24T14:18:33.512Z,17.42
2023-02-24T14:21:01.070Z,18.92
2023-02-24T14:23:35.478Z,16.33
2023-02-24T14:26:05.393Z,16.15
2023-02-24T14:28:37.569Z,18.35
2023-02-24T14:31:15.231Z,21.10
2023-02-24T14:33:44.352Z,16.98
2023-02-24T14:36:17.136Z,21.50
2023-02-24T14:38:45.026Z,16.70
2023-02-24T14:41:30.418Z,17.15
2023-02-24T14:43:57.989Z,19.45
2023-02-24T14:46:25.845Z,18.40
2023-02-24T14:48:55.198Z,17.60
2023-02-24T14:51:28.644Z,21.38
2023-02-24T14:53:57.699Z,17.23
2023-02-24T14:56:28.009Z,18.17
2023-02-24T14:58:58.886Z,18.70
2023-02-24T15:01:39.066Z,15.88
2023-02-24T15:04:15.738Z,16.17
2023-02-24T15:06:44.683Z,21.42
2023-02-24T15:09:17.346Z,20.88
2023-02-24T15:11:45.348Z,16.95
2023-02-24T15:14:27.091Z,22.35
2023-02-24T15:17:00.426Z,24.08
2023-02-24T15:19:28.185Z,25.75
2023-02-24T15:21:55.709Z,25.25
2023-02-24T15:24:34.330Z,20.88
2023-02-24T15:27:03.238Z,20.88
2023-02-24T15:29:31.884Z,19.05
2023-02-24T15:32:00.876Z,23.42
2023-02-24T15:34:33.423Z,18.65
2023-02-24T15:37:04.436Z,17.58
2023-02-24T15:39:33.262Z,19.50
2023-02-24T15:42:19.561Z,24.13
2023-02-24T15:44:54.292Z,20.83
2023-02-24T15:47:22.007Z,21.52
2023-02-24T15:49:49.510Z,23.75
2023-02-24T15:52:21.282Z,23.00
2023-02-24T15:54:48.965Z,21.92
2023-02-24T15:57:17.462Z,34.00
2023-02-24T15:59:45.777Z,31.17
2023-02-24T16:02:23.328Z,27.33
2023-02-24T16:04:51.825Z,25.85
2023-02-24T16:07:21.540Z,28.83
2023-02-24T16:09:50.783Z,33.35
2023-02-24T16:12:21.833Z,31.65
2023-02-24T16:14:50.385Z,33.70
2023-02-24T16:17:34.950Z,34.08
2023-02-24T16:20:08.501Z,34.42
2023-02-24T16:22:36.561Z,41.03
2023-02-24T16:25:05.089Z,35.95
2023-02-24T16:27:32.551Z,51.00
2023-02-24T16:29:59.959Z,51.78
2023-02-24T16:32:27.781Z,54.30
2023-02-24T16:34:56.396Z,55.97
2023-02-24T16:37:32.866Z,48.80
2023-02-24T16:40:00.387Z,41.80
2023-02-24T16:42:27.849Z,49.00
2023-02-24T16:44:55.351Z,58.53
2023-02-24T16:47:24.240Z,64.97
2023-02-24T16:49:55.432Z,64.53
2023-02-24T16:52:24.800Z,47.70
2023-02-24T16:54:52.264Z,50.85
2023-02-24T16:57:25.338Z,50.45
2023-02-24T16:59:53.102Z,48.88
2023-02-24T17:02:22.532Z,55.42
2023-02-24T17:04:50.091Z,50.92
2023-02-24T17:07:20.330Z,55.65
2023-02-24T17:09:47.918Z,52.70
2023-02-24T17:12:16.312Z,62.42
2023-02-24T17:14:43.846Z,49.22
2023-02-24T17:17:11.787Z,50.53
2023-02-24T17:19:39.537Z,52.22
2023-02-24T17:22:07.077Z,45.78
2023-02-24T17:24:34.477Z,52.22
2023-02-24T17:27:03.939Z,61.95
2023-02-24T17:29:31.361Z,59.53
2023-02-24T17:31:59.110Z,59.30
2023-02-24T17:34:27.393Z,65.30
2023-02-24T17:36:55.399Z,124.72
2023-02-24T17:39:23.135Z,65.55
2023-02-24T17:41:50.641Z,78.63
2023-02-24T17:44:18.396Z,194.10
2023-02-24T17:46:45.924Z,175.55
2023-02-24T17:49:13.494Z,175.18
2023-02-24T17:51:40.976Z,162.55
2023-02-24T17:54:08.526Z,146.52
2023-02-24T17:56:36.113Z,149.20
2023-02-24T17:59:03.681Z,151.77
2023-02-24T18:01:31.297Z,141.70
2023-02-24T18:03:58.833Z,150.52
2023-02-24T18:06:26.439Z,138.27
2023-02-24T18:08:54.705Z,144.43
2023-02-24T18:11:22.191Z,147.13
2023-02-24T18:13:52.688Z,152.35
2023-02-24T18:16:20.880Z,156.77
2023-02-24T18:18:48.830Z,166.35
2023-02-24T18:21:16.261Z,197.77
2023-02-24T18:23:43.878Z,229.68
2023-02-24T18:26:12.594Z,209.70
2023-02-24T18:28:40.935Z,152.48
2023-02-24T18:31:22.005Z,148.02
2023-02-24T18:33:50.207Z,132.85
2023-02-24T18:36:17.937Z,91.40
2023-02-24T18:38:45.758Z,149.48
2023-02-24T18:41:18.713Z,143.43
2023-02-24T18:43:50.229Z,115.82
2023-02-24T18:46:18.717Z,109.13
2023-02-24T18:48:46.855Z,109.75
2023-02-24T18:51:16.890Z,114.00
2023-02-24T18:53:44.436Z,104.40
2023-02-24T18:56:14.129Z,108.40
2023-02-24T18:58:41.710Z,97.38
2023-02-24T19:01:16.627Z,97.80
2023-02-24T19:03:44.537Z,106.40
2023-02-24T19:06:12.601Z,133.57
2023-02-24T19:08:40.904Z,132.40
2023-02-24T19:11:15.071Z,129.77
2023-02-24T19:13:42.737Z,88.80
2023-02-24T19:16:10.248Z,107.72
2023-02-24T19:18:37.792Z,83.07
2023-02-24T19:21:06.513Z,79.60
2023-02-24T19:23:34.153Z,74.72
2023-02-24T19:26:01.539Z,68.68
2023-02-24T19:28:29.018Z,67.85
2023-02-24T19:30:56.750Z,78.32
2023-02-24T19:33:24.292Z,67.60
2023-02-24T19:35:53.457Z,69.55
2023-02-24T19:38:23.853Z,67.45
2023-02-24T19:40:51.314Z,75.18
2023-02-24T19:43:19.989Z,72.85
2023-02-24T19:45:47.425Z,80.10
2023-02-24T19:48:14.862Z,75.35
2023-02-24T19:50:42.567Z,72.05
2023-02-24T19:53:09.959Z,68.75
2023-02-24T19:55:37.690Z,72.63
2023-02-24T19:58:05.394Z,78.88
2023-02-24T20:00:32.953Z,80.53
2023-02-24T20:03:00.376Z,71.32
2023-02-24T20:05:27.853Z,74.32
2023-02-24T20:07:55.276Z,76.57
2023-02-24T20:10:22.760Z,76.97
2023-02-24T20:12:50.213Z,81.40
2023-02-24T20:15:17.695Z,77.13
2023-02-24T20:17:45.454Z,74.72
2023-02-24T20:20:13.232Z,78.82
2023-02-24T20:22:40.805Z,74.03
2023-02-24T20:25:08.659Z,84.93
2023-02-24T20:27:36.347Z,82.07
2023-02-24T20:30:03.768Z,94.18
2023-02-24T20:32:31.452Z,80.40
2023-02-24T20:34:58.987Z,90.00
2023-02-24T20:37:26.423Z,84.28
2023-02-24T20:39:53.826Z,89.38
2023-02-24T20:42:21.383Z,99.28
2023-02-24T20:44:48.846Z,87.32
2023-02-24T20:47:18.222Z,88.35
2023-02-24T20:49:46.841Z,89.65
2023-02-24T20:52:14.237Z,91.30
2023-02-24T20:54:43.375Z,94.60
2023-02-24T20:57:11.020Z,94.38
2023-02-24T20:59:41.603Z,99.63
2023-02-24T21:02:11.687Z,94.45
2023-02-24T21:04:39.901Z,92.43
2023-02-24T21:07:08.252Z,99.30
2023-02-24T21:09:37.163Z,95.07
2023-02-24T21:12:05.244Z,93.97
2023-02-24T21:14:32.747Z,94.53
2023-02-24T21:17:00.163Z,86.75
2023-02-24T21:19:27.753Z,85.60
2023-02-24T21:21:55.148Z,87.40
2023-02-24T21:24:24.059Z,91.97
2023-02-24T21:26:51.486Z,86.70
2023-02-24T21:29:18.917Z,96.00
2023-02-24T21:31:46.839Z,85.32
2023-02-24T21:34:16.686Z,87.60
2023-02-24T21:36:44.320Z,78.45
2023-02-24T21:39:14.862Z,86.18
2023-02-24T21:41:42.904Z,74.88
2023-02-24T21:44:14.678Z,84.03
2023-02-24T21:46:42.714Z,78.55
2023-02-24T21:49:14.773Z,81.90
2023-02-24T21:51:42.304Z,81.07
2023-02-24T21:54:12.455Z,86.35
2023-02-24T21:56:40.227Z,80.82
2023-02-24T21:59:09.743Z,77.95
2023-02-24T22:01:38.430Z,79.05
2023-02-24T22:04:07.033Z,82.70
2023-02-24T22:06:36.089Z,72.78
2023-02-24T22:09:04.595Z,70.72
2023-02-24T22:11:32.877Z,70.60
2023-02-24T22:14:00.447Z,74.65
2023-02-24T22:16:28.275Z,64.00
2023-02-24T22:18:55.934Z,66.03
2023-02-24T22:21:24.722Z,63.47
2023-02-24T22:23:53.542Z,67.32
2023-02-24T22:26:23.669Z,66.53
2023-02-24T22:28:51.319Z,67.20
2023-02-24T22:31:20.957Z,73.38
2023-02-24T22:33:48.952Z,72.10
2023-02-24T22:36:21.572Z,73.97
2023-02-24T22:38:49.276Z,75.75
2023-02-24T22:41:17.827Z,68.95
2023-02-24T22:43:45.393Z,64.28
2023-02-24T22:46:17.681Z,75.18
2023-02-24T22:48:45.432Z,67.75
2023-02-24T22:51:13.327Z,77.28
2023-02-24T22:53:42.116Z,75.15
2023-02-24T22:56:11.076Z,75.30
2023-02-24T22:58:38.680Z,72.15
2023-02-24T23:01:13.597Z,70.45
2023-02-24T23:03:41.520Z,77.60
2023-02-24T23:06:10.347Z,75.57
2023-02-24T23:08:39.215Z,76.03
2023-02-24T23:11:14.148Z,78.95
2023-02-24T23:13:42.379Z,73.10
2023-02-24T23:16:11.436Z,78.15
2023-02-24T23:18:38.965Z,73.32
2023-02-24T23:21:11.082Z,74.47
2023-02-24T23:23:38.924Z,75.35
2023-02-24T23:26:06.470Z,69.70
2023-02-24T23:28:35.126Z,76.35
2023-02-24T23:31:03.000Z,69.72
2023-02-24T23:33:30.645Z,72.55
2023-02-24T23:36:02.933Z,73.80
2023-02-24T23:38:30.396Z,69.07
2023-02-24T23:40:57.814Z,67.78
2023-02-24T23:43:25.301Z,69.25
2023-02-24T23:45:52.765Z,67.38
2023-02-24T23:48:20.793Z,67.18
2023-02-24T23:50:49.380Z,68.45
2023-02-24T23:53:16.869Z,70.03
2023-02-24T23:55:44.590Z,69.97
2023-02-24T23:58:12.061Z,70.32
